Time;durP1;ratioP1;P1;durP2;ratioP2;P2;SDS_P1;SDS_P2;PMS_P1;PMS_P2;Temp;Humidity;BMP_temperature;BMP_pressure;BME280_temperature;BME280_humidity;BME280_pressure;Samples;Min_cycle;Max_cycle;Signal;HPM_P1;HPM_P2
2022/06/17 00:01:26;;;;;;;;;;;19.60;99.90;;;;;;5094511;28;19909;-78
2022/06/17 00:03:52;;;;;;;;;;;19.50;99.90;;;;;;5095299;28;19908;-78
2022/06/17 00:06:19;;;;;;;;;;;19.50;99.90;;;;;;5094070;28;19908;-78
2022/06/17 00:08:46;;;;;;;;;;;19.50;99.90;;;;;;5094228;28;19999;-78
2022/06/17 00:11:23;;;;;;;;;;;19.50;99.90;;;;;;5094405;28;19908;-76
2022/06/17 00:13:49;;;;;;;;;;;19.60;99.90;;;;;;5094860;28;19915;-78
2022/06/17 00:16:16;;;;;;;;;;;19.60;99.90;;;;;;5094770;28;19920;-77
2022/06/17 00:18:42;;;;;;;;;;;19.60;99.90;;;;;;5094792;28;19912;-78
2022/06/17 00:21:27;;;;;;;;;;;19.70;99.90;;;;;;5094598;28;19938;-78
2022/06/17 00:23:53;;;;;;;;;;;19.70;99.90;;;;;;5095048;28;19947;-78
2022/06/17 00:26:19;;;;;;;;;;;19.70;99.90;;;;;;5094192;28;19953;-78
2022/06/17 00:28:44;;;;;;;;;;;19.70;99.90;;;;;;5094527;28;19998;-77
2022/06/17 00:31:10;;;;;;;;;;;19.70;99.90;;;;;;5094757;28;19920;-76
2022/06/17 00:33:35;;;;;;;;;;;19.70;99.90;;;;;;5094336;28;20349;-77
2022/06/17 00:36:01;;;;;;;;;;;19.70;99.90;;;;;;5094581;28;20003;-78
2022/06/17 00:38:31;;;;;;;;;;;19.70;99.90;;;;;;5094144;28;20350;-78
2022/06/17 00:40:58;;;;;;;;;;;19.70;99.90;;;;;;5094451;28;19925;-76
2022/06/17 00:43:26;;;;;;;;;;;19.70;99.90;;;;;;5093863;28;19908;-78
2022/06/17 00:46:05;;;;;;;;;;;19.80;99.90;;;;;;5094309;28;19955;-79
2022/06/17 00:48:34;;;;;;;;;;;19.70;99.90;;;;;;5094186;28;19923;-79
2022/06/17 00:51:05;;;;;;;;;;;19.80;99.90;;;;;;5094361;28;19908;-79
2022/06/17 00:53:33;;;;;;;;;;;19.80;99.90;;;;;;5093812;28;19908;-79
2022/06/17 00:56:04;;;;;;;;;;;19.80;99.90;;;;;;5094251;28;19912;-78
2022/06/17 00:58:31;;;;;;;;;;;19.80;99.90;;;;;;5093377;28;20280;-78
2022/06/17 01:00:58;;;;;;;;;;;19.80;99.90;;;;;;5094138;28;19915;-78
2022/06/17 01:03:25;;;;;;;;;;;19.80;99.90;;;;;;5093641;28;19915;-78
2022/06/17 01:05:54;;;;;;;;;;;19.80;99.90;;;;;;5094094;28;19912;-78
2022/06/17 01:11:08;;;;;;;;;;;19.90;99.90;;;;;;5094596;28;19919;-79
2022/06/17 01:13:35;;;;;;;;;;;19.90;99.90;;;;;;5094234;28;19943;-78
2022/06/17 01:16:01;;;;;;;;;;;19.90;99.90;;;;;;5093495;28;19912;-78
2022/06/17 01:18:28;;;;;;;;;;;19.80;99.90;;;;;;5092950;28;19912;-78
2022/06/17 01:20:55;;;;;;;;;;;19.80;99.90;;;;;;5093557;28;19971;-78
2022/06/17 01:23:21;;;;;;;;;;;19.90;99.90;;;;;;5093113;28;19939;-78
2022/06/17 01:25:47;;;;;;;;;;;19.80;99.90;;;;;;5093358;28;19962;-79
2022/06/17 01:28:17;;;;;;;;;;;19.80;99.90;;;;;;5093541;28;19909;-78
2022/06/17 01:30:47;;;;;;;;;;;19.90;99.90;;;;;;5093760;28;20348;-79
2022/06/17 01:33:13;;;;;;;;;;;19.90;99.90;;;;;;5073430;28;19974;-79
2022/06/17 01:35:58;;;;;;;;;;;19.90;99.90;;;;;;5072514;28;20269;-78
2022/06/17 01:38:24;;;;;;;;;;;20.00;99.90;;;;;;5072551;28;19917;-78
2022/06/17 01:40:51;;;;;;;;;;;20.00;99.90;;;;;;5073252;28;19909;-78
2022/06/17 01:43:18;;;;;;;;;;;20.00;99.90;;;;;;5072289;28;20370;-76
2022/06/17 01:45:47;;;;;;;;;;;20.00;99.90;;;;;;5072867;28;19916;-78
2022/06/17 01:48:14;;;;;;;;;;;20.10;99.90;;;;;;5072654;28;19908;-79
2022/06/17 01:50:41;;;;;;;;;;;20.10;99.90;;;;;;5072074;28;20010;-79
2022/06/17 01:53:13;;;;;;;;;;;20.10;99.90;;;;;;5072800;28;20365;-78
2022/06/17 01:55:43;;;;;;;;;;;20.20;99.90;;;;;;5072259;28;19946;-78
2022/06/17 01:58:18;;;;;;;;;;;20.20;99.90;;;;;;5073045;28;19919;-79
2022/06/17 02:00:44;;;;;;;;;;;20.20;99.90;;;;;;5072991;28;19908;-78
2022/06/17 02:03:13;;;;;;;;;;;20.20;99.90;;;;;;5071507;28;19909;-79
2022/06/17 02:05:41;;;;;;;;;;;20.20;99.90;;;;;;5072353;28;20018;-79
2022/06/17 02:08:07;;;;;;;;;;;20.20;99.90;;;;;;5072879;28;19913;-79
2022/06/17 02:10:38;;;;;;;;;;;20.20;99.90;;;;;;5072269;28;19909;-79
2022/06/17 02:13:05;;;;;;;;;;;20.20;99.90;;;;;;5072637;28;20271;-79
2022/06/17 02:15:31;;;;;;;;;;;20.20;99.90;;;;;;5072115;28;20317;-76
2022/06/17 02:17:57;;;;;;;;;;;20.20;99.90;;;;;;5072781;28;19919;-79
2022/06/17 02:20:23;;;;;;;;;;;20.20;99.90;;;;;;5071928;28;19908;-79
2022/06/17 02:22:50;;;;;;;;;;;20.20;99.90;;;;;;5072794;28;20334;-79
2022/06/17 02:25:17;;;;;;;;;;;20.10;99.90;;;;;;5072712;28;19913;-79
2022/06/17 02:27:43;;;;;;;;;;;20.20;99.90;;;;;;5072119;28;20013;-79
2022/06/17 02:30:09;;;;;;;;;;;20.10;99.90;;;;;;5073050;28;19947;-79
2022/06/17 02:32:36;;;;;;;;;;;20.20;99.90;;;;;;5091369;28;20330;-79
2022/06/17 02:35:25;;;;;;;;;;;20.20;99.90;;;;;;5096597;28;20357;-78
2022/06/17 02:37:51;;;;;;;;;;;20.20;99.90;;;;;;5076843;28;19958;-79
2022/06/17 02:40:32;;;;;;;;;;;20.20;99.90;;;;;;5095572;28;19908;-79
2022/06/17 02:42:59;;;;;;;;;;;20.30;99.90;;;;;;5096526;28;19908;-78
2022/06/17 02:45:26;;;;;;;;;;;20.40;99.00;;;;;;5096152;28;19912;-78
2022/06/17 02:47:53;;;;;;;;;;;20.40;97.80;;;;;;5096606;28;19916;-79
2022/06/17 02:50:23;;;;;;;;;;;20.40;94.90;;;;;;5096592;28;19957;-78
2022/06/17 02:52:49;;;;;;;;;;;20.50;94.40;;;;;;5096425;28;19950;-78
2022/06/17 02:55:14;;;;;;;;;;;20.50;94.80;;;;;;5096608;28;19915;-79
2022/06/17 02:57:40;;;;;;;;;;;20.50;92.90;;;;;;5095959;28;19920;-78
2022/06/17 03:00:26;;;;;;;;;;;20.50;91.60;;;;;;5095249;28;19915;-78
2022/06/17 03:02:56;;;;;;;;;;;20.40;90.70;;;;;;5095683;28;20024;-79
2022/06/17 03:05:25;;;;;;;;;;;20.50;89.60;;;;;;5095918;28;20378;-75
2022/06/17 03:07:51;;;;;;;;;;;20.50;88.60;;;;;;5096360;28;19961;-79
2022/06/17 03:10:24;;;;;;;;;;;20.40;86.40;;;;;;5096217;28;19908;-78
2022/06/17 03:12:53;;;;;;;;;;;20.40;86.70;;;;;;5096341;28;19969;-78
2022/06/17 03:15:19;;;;;;;;;;;20.30;86.90;;;;;;5096197;28;19918;-79
2022/06/17 03:17:45;;;;;;;;;;;20.30;86.70;;;;;;5095159;28;20336;-78
2022/06/17 03:20:23;;;;;;;;;;;20.30;85.00;;;;;;5096031;28;19908;-79
2022/06/17 03:22:50;;;;;;;;;;;20.30;85.80;;;;;;5095894;28;19912;-79
2022/06/17 03:25:21;;;;;;;;;;;20.20;86.80;;;;;;5096087;28;19961;-80
2022/06/17 03:27:48;;;;;;;;;;;20.20;88.70;;;;;;5095353;28;19908;-78
2022/06/17 03:30:19;;;;;;;;;;;20.20;87.90;;;;;;5095887;28;19908;-78
2022/06/17 03:32:49;;;;;;;;;;;20.10;87.40;;;;;;5095073;28;19920;-79
2022/06/17 03:35:18;;;;;;;;;;;20.10;89.40;;;;;;5095668;28;19919;-79
2022/06/17 03:37:46;;;;;;;;;;;20.10;89.10;;;;;;5095271;28;19916;-79
2022/06/17 03:40:19;;;;;;;;;;;20.00;89.00;;;;;;5094229;28;19915;-79
2022/06/17 03:42:50;;;;;;;;;;;20.00;90.10;;;;;;5095316;28;19908;-79
2022/06/17 03:45:24;;;;;;;;;;;19.90;90.70;;;;;;5095975;28;19908;-79
2022/06/17 03:47:52;;;;;;;;;;;19.90;91.50;;;;;;5094894;28;20384;-79
2022/06/17 03:50:29;;;;;;;;;;;19.80;91.50;;;;;;5095637;28;20379;-79
2022/06/17 03:53:05;;;;;;;;;;;19.80;92.40;;;;;;5095561;28;19908;-79
2022/06/17 03:55:31;;;;;;;;;;;19.70;92.80;;;;;;5094802;28;19912;-78
2022/06/17 03:57:59;;;;;;;;;;;19.60;93.10;;;;;;5095247;28;19912;-78
2022/06/17 04:00:43;;;;;;;;;;;19.60;93.30;;;;;;5095324;28;19919;-76
2022/06/17 04:03:15;;;;;;;;;;;19.50;94.30;;;;;;5094859;28;19915;-78
2022/06/17 04:05:42;;;;;;;;;;;19.50;94.80;;;;;;5094410;28;20365;-77
2022/06/17 04:08:09;;;;;;;;;;;19.40;95.60;;;;;;5094854;28;19912;-78
2022/06/17 04:10:35;;;;;;;;;;;19.30;96.50;;;;;;5094301;28;20012;-77
2022/06/17 04:13:00;;;;;;;;;;;19.30;97.30;;;;;;5094800;28;20009;-78
2022/06/17 04:15:26;;;;;;;;;;;19.30;97.40;;;;;;5101744;28;19908;-75
2022/06/17 04:17:53;;;;;;;;;;;19.20;98.10;;;;;;5110375;28;19935;-79
2022/06/17 04:20:32;;;;;;;;;;;19.20;99.00;;;;;;5095057;28;19915;-79
2022/06/17 04:23:24;;;;;;;;;;;19.10;99.50;;;;;;5095015;28;19999;-78
2022/06/17 04:25:55;;;;;;;;;;;19.10;99.90;;;;;;5091781;28;19961;-78
2022/06/17 04:28:24;;;;;;;;;;;19.00;99.90;;;;;;5093553;28;19934;-78
2022/06/17 04:30:55;;;;;;;;;;;19.00;99.90;;;;;;5093639;28;19915;-77
2022/06/17 04:33:23;;;;;;;;;;;19.00;99.90;;;;;;5094681;28;19931;-77
2022/06/17 04:35:54;;;;;;;;;;;18.90;99.90;;;;;;5094019;28;19983;-77
2022/06/17 04:38:19;;;;;;;;;;;18.90;99.90;;;;;;5094677;28;19912;-77
2022/06/17 04:40:47;;;;;;;;;;;18.80;99.90;;;;;;5093652;28;20038;-78
2022/06/17 04:43:25;;;;;;;;;;;18.80;99.90;;;;;;5094436;28;19908;-79
2022/06/17 04:45:55;;;;;;;;;;;18.90;99.90;;;;;;5093326;28;19963;-78
2022/06/17 04:48:21;;;;;;;;;;;18.80;99.90;;;;;;5092798;28;19915;-79
2022/06/17 04:50:47;;;;;;;;;;;18.80;99.90;;;;;;5093483;28;19908;-78
2022/06/17 04:53:12;;;;;;;;;;;18.80;99.90;;;;;;5093601;28;19915;-79
2022/06/17 04:55:42;;;;;;;;;;;18.80;99.90;;;;;;5092339;28;19918;-77
2022/06/17 04:58:12;;;;;;;;;;;18.80;99.90;;;;;;5094065;28;19916;-78
2022/06/17 05:00:37;;;;;;;;;;;18.80;99.90;;;;;;5093211;28;19961;-77
2022/06/17 05:03:03;;;;;;;;;;;18.80;99.90;;;;;;5094032;28;19908;-77
2022/06/17 05:05:34;;;;;;;;;;;18.80;99.90;;;;;;5094091;28;19908;-78
2022/06/17 05:08:00;;;;;;;;;;;18.80;99.90;;;;;;5104073;28;19939;-78
2022/06/17 05:10:29;;;;;;;;;;;18.80;99.90;;;;;;5107250;28;19915;-79
2022/06/17 05:12:58;;;;;;;;;;;18.70;99.90;;;;;;5093672;28;19915;-78
2022/06/17 05:15:24;;;;;;;;;;;18.70;99.90;;;;;;5093914;28;19912;-78
2022/06/17 05:17:50;;;;;;;;;;;18.70;99.90;;;;;;5092937;28;19916;-78
2022/06/17 05:20:20;;;;;;;;;;;18.70;99.90;;;;;;5093750;28;19912;-78
2022/06/17 05:22:48;;;;;;;;;;;18.70;99.90;;;;;;5092086;28;19915;-79
2022/06/17 05:25:18;;;;;;;;;;;18.70;99.90;;;;;;5093665;28;20003;-79
2022/06/17 05:27:44;;;;;;;;;;;18.80;99.90;;;;;;5092814;28;19912;-79
2022/06/17 05:30:11;;;;;;;;;;;18.80;99.90;;;;;;5093557;28;19957;-79
2022/06/17 05:32:36;;;;;;;;;;;18.80;99.90;;;;;;5093023;28;19924;-79
2022/06/17 05:35:02;;;;;;;;;;;18.80;99.90;;;;;;5093563;28;19946;-78
2022/06/17 05:37:28;;;;;;;;;;;18.80;99.90;;;;;;5093639;28;19940;-80
2022/06/17 05:39:54;;;;;;;;;;;18.90;99.90;;;;;;5093099;28;20739;-78
2022/06/17 05:42:20;;;;;;;;;;;18.90;99.90;;;;;;5093512;28;19916;-78
2022/06/17 05:44:46;;;;;;;;;;;18.90;99.90;;;;;;5092864;28;19930;-78
2022/06/17 05:47:12;;;;;;;;;;;19.00;99.90;;;;;;5092989;28;19962;-78
2022/06/17 05:49:38;;;;;;;;;;;19.00;99.90;;;;;;5091310;28;19908;-77
2022/06/17 05:52:04;;;;;;;;;;;19.10;99.90;;;;;;5093181;28;19912;-78
2022/06/17 05:54:30;;;;;;;;;;;19.10;99.90;;;;;;5091883;28;20313;-78
2022/06/17 05:56:55;;;;;;;;;;;19.20;99.90;;;;;;5092691;28;19940;-78
2022/06/17 05:59:21;;;;;;;;;;;19.20;99.90;;;;;;5094759;28;20018;-79
2022/06/17 06:01:47;;;;;;;;;;;19.20;99.90;;;;;;5092518;28;19908;-77
2022/06/17 06:04:12;;;;;;;;;;;19.40;99.90;;;;;;5092687;28;19947;-77
2022/06/17 06:06:38;;;;;;;;;;;19.50;99.90;;;;;;5091760;28;19908;-77
2022/06/17 06:09:04;;;;;;;;;;;19.60;99.90;;;;;;5092762;28;20376;-78
2022/06/17 06:11:30;;;;;;;;;;;19.70;99.90;;;;;;5092696;28;19908;-78
2022/06/17 06:13:55;;;;;;;;;;;19.80;99.90;;;;;;5092288;28;19911;-78
2022/06/17 06:16:21;;;;;;;;;;;19.80;99.90;;;;;;5092724;28;20343;-78
2022/06/17 06:18:47;;;;;;;;;;;19.80;99.90;;;;;;5092194;28;19966;-78
2022/06/17 06:21:13;;;;;;;;;;;19.70;99.90;;;;;;5092467;28;20261;-78
2022/06/17 06:23:41;;;;;;;;;;;19.80;99.90;;;;;;5092356;28;19920;-77
2022/06/17 06:26:08;;;;;;;;;;;19.70;99.90;;;;;;5092783;28;20011;-78
2022/06/17 06:28:34;;;;;;;;;;;19.70;99.90;;;;;;5092807;28;20362;-78
2022/06/17 06:31:01;;;;;;;;;;;19.60;99.90;;;;;;5091853;28;19909;-78
2022/06/17 06:33:27;;;;;;;;;;;19.60;99.90;;;;;;5092377;28;19920;-78
2022/06/17 06:35:53;;;;;;;;;;;19.60;99.90;;;;;;5092143;28;19912;-78
2022/06/17 06:38:19;;;;;;;;;;;19.60;99.90;;;;;;5092631;28;19916;-78
2022/06/17 06:40:45;;;;;;;;;;;19.50;99.90;;;;;;5092133;28;19912;-77
2022/06/17 06:43:12;;;;;;;;;;;19.50;99.90;;;;;;5092750;28;20006;-78
2022/06/17 06:45:37;;;;;;;;;;;19.50;99.90;;;;;;5092336;28;19908;-75
2022/06/17 06:48:05;;;;;;;;;;;19.50;99.90;;;;;;5092275;28;20395;-78
2022/06/17 06:50:31;;;;;;;;;;;19.50;99.90;;;;;;5092291;28;19908;-78
2022/06/17 06:52:56;;;;;;;;;;;19.50;99.90;;;;;;5092022;28;20369;-78
2022/06/17 06:55:22;;;;;;;;;;;19.50;99.90;;;;;;5092152;28;19912;-78
2022/06/17 06:57:51;;;;;;;;;;;19.60;99.90;;;;;;5091728;28;20003;-78
2022/06/17 07:00:21;;;;;;;;;;;19.60;99.90;;;;;;5092547;28;19923;-78
2022/06/17 07:02:47;;;;;;;;;;;19.70;99.90;;;;;;5091790;28;19970;-77
2022/06/17 07:05:13;;;;;;;;;;;19.70;99.90;;;;;;5091982;28;20389;-77
2022/06/17 07:07:39;;;;;;;;;;;19.60;99.90;;;;;;5092116;28;19950;-76
2022/06/17 07:10:04;;;;;;;;;;;19.60;99.90;;;;;;5092159;28;20003;-80
2022/06/17 07:12:30;;;;;;;;;;;19.60;99.90;;;;;;5092171;28;19947;-80
2022/06/17 07:14:56;;;;;;;;;;;19.60;99.90;;;;;;5092024;28;19912;-79
2022/06/17 07:17:22;;;;;;;;;;;19.60;99.90;;;;;;5094812;28;19912;-79
2022/06/17 07:19:47;;;;;;;;;;;19.50;99.90;;;;;;5095372;28;19908;-79
2022/06/17 07:22:13;;;;;;;;;;;19.60;99.90;;;;;;5096453;28;20254;-79
2022/06/17 07:24:38;;;;;;;;;;;19.50;99.90;;;;;;5098522;28;19908;-80
2022/06/17 07:27:04;;;;;;;;;;;19.50;99.90;;;;;;5096452;28;19908;-79
2022/06/17 07:29:29;;;;;;;;;;;19.60;99.90;;;;;;5095716;28;19967;-79
2022/06/17 07:31:55;;;;;;;;;;;19.60;99.90;;;;;;5093788;28;19924;-79
2022/06/17 07:34:21;;;;;;;;;;;19.60;99.90;;;;;;5095601;28;20241;-79
2022/06/17 07:42:15;;;;;;;;;;;19.60;99.90;;;;;;5095585;28;19965;-79
2022/06/17 07:44:40;;;;;;;;;;;19.70;99.90;;;;;;5095317;28;19998;-77
2022/06/17 07:47:07;;;;;;;;;;;19.60;99.90;;;;;;5095154;28;19915;-79
2022/06/17 07:49:32;;;;;;;;;;;19.70;99.90;;;;;;5095344;28;19969;-79
2022/06/17 07:51:58;;;;;;;;;;;19.70;99.90;;;;;;5094613;28;19935;-79
2022/06/17 07:54:23;;;;;;;;;;;19.70;99.90;;;;;;5095004;28;19996;-80
2022/06/17 07:56:49;;;;;;;;;;;19.70;99.90;;;;;;5093448;28;19921;-78
2022/06/17 07:59:14;;;;;;;;;;;19.70;99.90;;;;;;5094831;28;20353;-78
2022/06/17 08:01:40;;;;;;;;;;;19.70;99.90;;;;;;5095208;28;19912;-78
2022/06/17 08:04:06;;;;;;;;;;;19.70;99.90;;;;;;5094550;28;19917;-78
2022/06/17 08:06:31;;;;;;;;;;;19.70;99.90;;;;;;5095078;28;20419;-77
2022/06/17 08:08:57;;;;;;;;;;;19.70;99.90;;;;;;5094057;28;19915;-78
2022/06/17 08:11:24;;;;;;;;;;;19.70;99.90;;;;;;5095015;28;19962;-78
2022/06/17 08:13:49;;;;;;;;;;;19.70;99.90;;;;;;5095878;28;20250;-77
2022/06/17 08:16:15;;;;;;;;;;;19.70;99.90;;;;;;5094699;28;19931;-79
2022/06/17 08:18:41;;;;;;;;;;;19.70;99.90;;;;;;5095497;28;19912;-78
2022/06/17 08:21:07;;;;;;;;;;;19.70;99.90;;;;;;5094192;28;20428;-78
2022/06/17 08:23:32;;;;;;;;;;;19.70;99.90;;;;;;5094799;28;20372;-79
2022/06/17 08:25:59;;;;;;;;;;;19.80;99.90;;;;;;5096103;28;19915;-78
2022/06/17 08:28:25;;;;;;;;;;;19.80;99.90;;;;;;5098334;28;19913;-78
2022/06/17 08:30:52;;;;;;;;;;;19.90;99.90;;;;;;5094364;28;19908;-77
2022/06/17 08:33:25;;;;;;;;;;;19.90;99.90;;;;;;5094816;28;19920;-77
2022/06/17 08:35:51;;;;;;;;;;;20.00;99.90;;;;;;5093438;28;20349;-78
2022/06/17 08:38:33;;;;;;;;;;;20.10;99.90;;;;;;5093249;28;19924;-78
2022/06/17 08:41:00;;;;;;;;;;;20.10;99.90;;;;;;5093937;28;19908;-77
2022/06/17 08:43:31;;;;;;;;;;;20.20;99.90;;;;;;5094387;28;19915;-78
2022/06/17 08:45:57;;;;;;;;;;;20.30;99.90;;;;;;5093224;28;19908;-78
2022/06/17 08:48:35;;;;;;;;;;;20.30;99.90;;;;;;5093382;28;19912;-77
2022/06/17 08:51:19;;;;;;;;;;;20.40;99.90;;;;;;5092821;28;19908;-78
2022/06/17 08:53:45;;;;;;;;;;;20.50;99.90;;;;;;5092901;28;20273;-76
2022/06/17 08:56:29;;;;;;;;;;;20.60;99.90;;;;;;5093006;28;19919;-79
2022/06/17 08:58:58;;;;;;;;;;;20.70;99.90;;;;;;5091659;28;19916;-78
2022/06/17 09:01:33;;;;;;;;;;;20.70;99.90;;;;;;5093599;28;19989;-78
2022/06/17 09:04:06;;;;;;;;;;;20.70;99.90;;;;;;5093033;28;19999;-78
2022/06/17 09:06:47;;;;;;;;;;;20.70;99.90;;;;;;5093584;28;20312;-78
2022/06/17 09:09:27;;;;;;;;;;;20.60;99.90;;;;;;5093206;28;19912;-78
2022/06/17 09:11:59;;;;;;;;;;;20.60;99.90;;;;;;5093197;28;19908;-78
2022/06/17 09:14:43;;;;;;;;;;;20.60;99.90;;;;;;5093272;28;19919;-78
2022/06/17 09:17:15;;;;;;;;;;;20.50;99.90;;;;;;5092434;28;20274;-79
2022/06/17 09:19:43;;;;;;;;;;;20.50;99.90;;;;;;5092784;28;20314;-79
2022/06/17 09:22:20;;;;;;;;;;;20.40;99.90;;;;;;5092559;28;19915;-79
2022/06/17 09:24:46;;;;;;;;;;;20.30;99.90;;;;;;5092597;28;20380;-76
2022/06/17 09:27:21;;;;;;;;;;;20.20;99.90;;;;;;5092994;28;19908;-79
2022/06/17 09:29:47;;;;;;;;;;;20.20;99.90;;;;;;5092733;28;19916;-76
2022/06/17 09:32:12;;;;;;;;;;;20.10;99.90;;;;;;5092251;28;19920;-79
2022/06/17 09:34:51;;;;;;;;;;;20.20;99.90;;;;;;5092969;28;20015;-79
2022/06/17 09:37:20;;;;;;;;;;;20.20;99.90;;;;;;5092930;28;20003;-79
2022/06/17 09:39:52;;;;;;;;;;;20.20;99.90;;;;;;5092380;28;20037;-76
2022/06/17 09:42:28;;;;;;;;;;;20.30;99.90;;;;;;5092881;28;19931;-79
2022/06/17 09:44:56;;;;;;;;;;;20.30;99.90;;;;;;5091935;28;19916;-79
2022/06/17 09:47:25;;;;;;;;;;;20.40;99.90;;;;;;5092939;28;20270;-79
2022/06/17 09:49:59;;;;;;;;;;;20.40;99.90;;;;;;5092181;28;20025;-78
2022/06/17 09:52:33;;;;;;;;;;;20.30;99.90;;;;;;5092507;28;19919;-78
2022/06/17 09:55:07;;;;;;;;;;;20.30;99.90;;;;;;5091896;28;19973;-79
2022/06/17 09:57:38;;;;;;;;;;;20.40;99.90;;;;;;5092415;28;20365;-78
2022/06/17 10:00:08;;;;;;;;;;;20.40;99.90;;;;;;5090759;28;20388;-77
2022/06/17 10:02:43;;;;;;;;;;;20.50;99.90;;;;;;5092662;28;19931;-78
2022/06/17 10:05:13;;;;;;;;;;;20.50;99.90;;;;;;5091862;28;20088;-78
2022/06/17 10:07:54;;;;;;;;;;;20.40;99.90;;;;;;5092232;28;20298;-77
2022/06/17 10:10:30;;;;;;;;;;;20.40;99.90;;;;;;5092601;28;19908;-78
2022/06/17 10:13:15;;;;;;;;;;;20.40;99.90;;;;;;5091920;28;20002;-78
2022/06/17 10:18:52;;;;;;;;;;;20.30;99.90;;;;;;5091747;28;20003;-76
2022/06/17 10:21:30;;;;;;;;;;;20.30;99.90;;;;;;5092291;28;19908;-78
2022/06/17 10:24:15;;;;;;;;;;;20.30;99.90;;;;;;5091599;28;19908;-78
2022/06/17 10:26:52;;;;;;;;;;;20.20;99.90;;;;;;5092485;28;20250;-77
2022/06/17 10:29:18;;;;;;;;;;;20.30;99.90;;;;;;5092530;28;20241;-78
2022/06/17 10:31:45;;;;;;;;;;;20.40;99.90;;;;;;5092014;28;20011;-78
2022/06/17 10:34:33;;;;;;;;;;;20.40;99.90;;;;;;5091440;28;20842;-79
2022/06/17 10:37:00;;;;;;;;;;;20.50;99.90;;;;;;5085729;28;19979;-79
2022/06/17 10:39:28;;;;;;;;;;;20.50;99.90;;;;;;5092144;28;19940;-78
2022/06/17 10:41:55;;;;;;;;;;;20.50;99.90;;;;;;5091493;28;20297;-78
2022/06/17 10:44:22;;;;;;;;;;;20.50;99.90;;;;;;5092131;28;19915;-77
2022/06/17 10:46:51;;;;;;;;;;;20.40;99.90;;;;;;5092287;28;19908;-76
2022/06/17 10:49:29;;;;;;;;;;;20.30;99.90;;;;;;5090758;28;19957;-79
2022/06/17 10:51:57;;;;;;;;;;;20.30;99.90;;;;;;5093549;28;20011;-79
2022/06/17 10:54:22;;;;;;;;;;;20.20;99.90;;;;;;5095858;28;19988;-78
2022/06/17 10:57:04;;;;;;;;;;;20.20;99.90;;;;;;5095941;28;20424;-78
2022/06/17 10:59:31;;;;;;;;;;;20.10;99.90;;;;;;5096296;28;19908;-79
2022/06/17 11:01:58;;;;;;;;;;;20.10;99.90;;;;;;5095254;28;20002;-78
2022/06/17 11:04:28;;;;;;;;;;;20.00;99.90;;;;;;5095839;28;19915;-79
2022/06/17 11:06:57;;;;;;;;;;;20.00;99.90;;;;;;5093826;28;19908;-79
2022/06/17 11:09:24;;;;;;;;;;;20.00;99.90;;;;;;5095455;28;19909;-76
2022/06/17 11:12:04;;;;;;;;;;;20.00;99.90;;;;;;5095288;28;20242;-76
2022/06/17 11:14:31;;;;;;;;;;;19.90;99.90;;;;;;5095865;28;19943;-79
2022/06/17 11:16:57;;;;;;;;;;;20.00;99.90;;;;;;5095050;28;19919;-79
2022/06/17 11:19:24;;;;;;;;;;;20.00;99.90;;;;;;5095550;28;20269;-76
2022/06/17 11:21:52;;;;;;;;;;;20.00;99.90;;;;;;5095942;28;20003;-76
2022/06/17 11:24:23;;;;;;;;;;;20.00;99.90;;;;;;5095520;28;19908;-79
2022/06/17 11:27:18;;;;;;;;;;;20.00;99.90;;;;;;5095237;28;20258;-76
2022/06/17 11:29:45;;;;;;;;;;;20.00;99.90;;;;;;5085513;28;19912;-79
2022/06/17 11:32:20;;;;;;;;;;;20.10;99.90;;;;;;5094572;28;20391;-79
2022/06/17 11:34:54;;;;;;;;;;;20.20;99.90;;;;;;5095827;28;19916;-78
2022/06/17 11:37:23;;;;;;;;;;;20.20;99.90;;;;;;5095459;28;19912;-78
2022/06/17 11:40:06;;;;;;;;;;;20.30;99.90;;;;;;5095337;28;19986;-79
2022/06/17 11:42:31;;;;;;;;;;;20.30;99.90;;;;;;5095459;28;20281;-79
2022/06/17 11:44:59;;;;;;;;;;;20.30;99.90;;;;;;5094373;28;19908;-78
2022/06/17 11:47:26;;;;;;;;;;;20.20;99.90;;;;;;5093712;28;20339;-78
2022/06/17 11:49:57;;;;;;;;;;;20.20;99.90;;;;;;5094328;28;19908;-76
2022/06/17 11:52:28;;;;;;;;;;;20.10;99.90;;;;;;5094625;28;19970;-79
2022/06/17 11:54:54;;;;;;;;;;;20.00;99.90;;;;;;5094114;28;19918;-78
2022/06/17 11:57:24;;;;;;;;;;;19.90;99.90;;;;;;5094485;28;19958;-79
2022/06/17 11:59:51;;;;;;;;;;;19.80;99.90;;;;;;5094949;28;19909;-76
2022/06/17 12:02:17;;;;;;;;;;;19.80;99.90;;;;;;5094768;28;19991;-79
2022/06/17 12:05:04;;;;;;;;;;;19.80;99.90;;;;;;5094808;28;20344;-78
2022/06/17 12:07:36;;;;;;;;;;;19.80;99.90;;;;;;5094460;28;19912;-79
2022/06/17 12:10:10;;;;;;;;;;;19.90;99.90;;;;;;5094092;28;19908;-79
2022/06/17 12:12:36;;;;;;;;;;;20.00;99.90;;;;;;5094413;28;19955;-78
2022/06/17 12:15:09;;;;;;;;;;;20.10;99.90;;;;;;5093659;28;20831;-79
2022/06/17 12:17:36;;;;;;;;;;;20.20;99.90;;;;;;5094374;28;20336;-79
2022/06/17 12:20:08;;;;;;;;;;;20.40;99.90;;;;;;5093806;28;19909;-77
2022/06/17 12:22:38;;;;;;;;;;;20.40;99.90;;;;;;5094347;28;19908;-79
2022/06/17 12:25:04;;;;;;;;;;;20.60;99.90;;;;;;5093619;28;19915;-80
2022/06/17 12:27:35;;;;;;;;;;;20.80;99.90;;;;;;5093770;28;20361;-79
2022/06/17 12:30:04;;;;;;;;;;;20.80;99.90;;;;;;5094113;28;19915;-79
2022/06/17 12:32:38;;;;;;;;;;;20.90;99.90;;;;;;5095879;28;19920;-79
2022/06/17 12:35:10;;;;;;;;;;;21.00;99.90;;;;;;5093659;28;19920;-78
2022/06/17 12:37:52;;;;;;;;;;;21.00;99.90;;;;;;5093810;28;19916;-79
2022/06/17 12:40:22;;;;;;;;;;;20.90;99.90;;;;;;5093696;28;19977;-79
2022/06/17 12:43:06;;;;;;;;;;;20.80;99.90;;;;;;5093819;28;19908;-78
2022/06/17 12:45:45;;;;;;;;;;;20.80;99.90;;;;;;5092433;28;19931;-78
2022/06/17 12:48:22;;;;;;;;;;;20.80;99.90;;;;;;5073069;28;20349;-79
2022/06/17 12:53:42;;;;;;;;;;;21.00;99.90;;;;;;5073223;28;19916;-79
2022/06/17 12:56:10;;;;;;;;;;;21.00;99.90;;;;;;5072491;28;19920;-79
2022/06/17 12:58:54;;;;;;;;;;;21.10;99.90;;;;;;5073492;28;19917;-79
2022/06/17 13:01:40;;;;;;;;;;;21.20;99.90;;;;;;5072078;28;19915;-79
2022/06/17 13:04:09;;;;;;;;;;;21.30;99.90;;;;;;5072746;28;19924;-79
2022/06/17 13:06:35;;;;;;;;;;;21.40;99.90;;;;;;5073234;28;19999;-79
2022/06/17 13:09:13;;;;;;;;;;;21.50;99.90;;;;;;5072890;28;20021;-79
2022/06/17 13:11:46;;;;;;;;;;;21.80;99.90;;;;;;5071567;28;20333;-79
2022/06/17 13:14:17;;;;;;;;;;;22.00;99.90;;;;;;5071956;28;19912;-79
2022/06/17 13:16:48;;;;;;;;;;;22.10;99.90;;;;;;5072888;28;19916;-77
2022/06/17 13:19:29;;;;;;;;;;;22.20;99.90;;;;;;5072772;28;20372;-80
2022/06/17 13:22:07;;;;;;;;;;;22.40;99.90;;;;;;5072012;28;19908;-78
2022/06/17 13:24:39;;;;;;;;;;;22.60;99.90;;;;;;5073074;28;19954;-78
2022/06/17 13:27:07;;;;;;;;;;;22.80;99.90;;;;;;5071962;28;19909;-78
2022/06/17 13:29:47;;;;;;;;;;;22.90;99.90;;;;;;5072482;28;19987;-78
2022/06/17 13:32:13;;;;;;;;;;;23.00;99.90;;;;;;5072012;28;19916;-79
2022/06/17 13:34:42;;;;;;;;;;;23.00;99.90;;;;;;5071418;28;20277;-79
2022/06/17 13:37:07;;;;;;;;;;;22.90;99.90;;;;;;5070725;28;19917;-79
2022/06/17 13:39:34;;;;;;;;;;;22.60;99.90;;;;;;5072682;28;19931;-79
2022/06/17 13:42:02;;;;;;;;;;;22.50;99.90;;;;;;5072331;28;20357;-79
2022/06/17 13:44:30;;;;;;;;;;;22.40;99.90;;;;;;5072713;28;19955;-79
2022/06/17 13:46:56;;;;;;;;;;;22.40;99.90;;;;;;5072046;28;19909;-80
2022/06/17 13:49:38;;;;;;;;;;;22.30;99.90;;;;;;5072602;28;19915;-80
2022/06/17 13:52:16;;;;;;;;;;;22.10;99.90;;;;;;5071751;28;19915;-79
2022/06/17 13:55:00;;;;;;;;;;;21.90;99.90;;;;;;5072592;28;19916;-79
2022/06/17 13:57:29;;;;;;;;;;;21.80;99.90;;;;;;5072677;28;19920;-78
2022/06/17 13:59:56;;;;;;;;;;;21.80;99.90;;;;;;5071726;28;19963;-78
2022/06/17 14:02:24;;;;;;;;;;;21.70;99.90;;;;;;5070723;28;19917;-79
2022/06/17 14:04:59;;;;;;;;;;;21.70;99.90;;;;;;5072092;28;20298;-79
2022/06/17 14:08:03;;;;;;;;;;;21.70;99.90;;;;;;5072240;28;19962;-80
2022/06/17 14:10:34;;;;;;;;;;;21.60;99.90;;;;;;5049681;28;19909;-79
2022/06/17 14:13:01;;;;;;;;;;;21.50;99.90;;;;;;5045399;28;19919;-77
2022/06/17 14:15:32;;;;;;;;;;;21.50;99.90;;;;;;5031132;28;19917;-78
2022/06/17 14:18:00;;;;;;;;;;;21.40;99.90;;;;;;5048405;28;20386;-80
2022/06/17 14:20:26;;;;;;;;;;;21.40;99.90;;;;;;5048130;28;20424;-81
2022/06/17 14:23:11;;;;;;;;;;;21.30;99.90;;;;;;5048671;28;19909;-81
2022/06/17 14:25:47;;;;;;;;;;;21.20;99.90;;;;;;5049131;28;19909;-80
2022/06/17 14:28:31;;;;;;;;;;;21.20;99.90;;;;;;5053276;28;20012;-82
2022/06/17 14:31:15;;;;;;;;;;;21.20;99.90;;;;;;5053730;28;19959;-80
2022/06/17 14:34:01;;;;;;;;;;;21.20;99.90;;;;;;5054066;28;20362;-80
2022/06/17 14:36:45;;;;;;;;;;;21.20;99.90;;;;;;5053087;28;19913;-81
2022/06/17 14:39:29;;;;;;;;;;;21.20;99.90;;;;;;5053720;28;19913;-82
2022/06/17 14:42:04;;;;;;;;;;;21.20;99.90;;;;;;5086402;28;19914;-77
2022/06/17 14:44:36;;;;;;;;;;;21.20;99.90;;;;;;5095455;28;20280;-81
2022/06/17 14:47:29;;;;;;;;;;;21.20;99.90;;;;;;5094869;28;19915;-80